sensor_id;sensor_type;location;lat;lon;timestamp;pressure;altitude;pressure_sealevel;temperature;humidity
38225;BME280;24025;48.138;11.428;2023-02-19T00:01:32;95975.03;;;10.34;64.27
38225;BME280;24025;48.138;11.428;2023-02-19T00:04:05;95974.34;;;10.37;64.08
38225;BME280;24025;48.138;11.428;2023-02-19T00:06:36;95971.50;;;10.30;64.46
38225;BME280;24025;48.138;11.428;2023-02-19T00:09:08;95969.25;;;10.32;64.32
38225;BME280;24025;48.138;11.428;2023-02-19T00:11:39;95959.06;;;10.34;64.28
38225;BME280;24025;48.138;11.428;2023-02-19T00:14:14;95965.06;;;10.31;64.55
38225;BME280;24025;48.138;11.428;2023-02-19T00:16:46;95960.50;;;10.32;64.56
38225;BME280;24025;48.138;11.428;2023-02-19T00:19:19;95960.09;;;10.30;64.78
38225;BME280;24025;48.138;11.428;2023-02-19T00:21:51;95965.78;;;10.28;64.57
38225;BME280;24025;48.138;11.428;2023-02-19T00:24:21;95956.66;;;10.29;64.49
38225;BME280;24025;48.138;11.428;2023-02-19T00:26:52;95951.66;;;10.28;65.14
38225;BME280;24025;48.138;11.428;2023-02-19T00:29:22;95952.34;;;10.25;64.99
38225;BME280;24025;48.138;11.428;2023-02-19T00:31:54;95948.66;;;10.29;64.44
38225;BME280;24025;48.138;11.428;2023-02-19T00:34:24;95949.84;;;10.32;64.78
38225;BME280;24025;48.138;11.428;2023-02-19T00:36:54;95952.84;;;10.30;64.55
38225;BME280;24025;48.138;11.428;2023-02-19T00:39:25;95946.34;;;10.28;64.67
38225;BME280;24025;48.138;11.428;2023-02-19T00:41:55;95944.59;;;10.35;64.31
38225;BME280;24025;48.138;11.428;2023-02-19T00:44:25;95937.72;;;10.34;64.48
38225;BME280;24025;48.138;11.428;2023-02-19T00:46:56;95948.66;;;10.29;64.79
38225;BME280;24025;48.138;11.428;2023-02-19T00:49:27;95929.38;;;10.36;64.73
38225;BME280;24025;48.138;11.428;2023-02-19T00:51:57;95929.72;;;10.34;64.52
38225;BME280;24025;48.138;11.428;2023-02-19T00:54:27;95933.16;;;10.35;64.41
38225;BME280;24025;48.138;11.428;2023-02-19T00:56:58;95937.38;;;10.36;64.70
38225;BME280;24025;48.138;11.428;2023-02-19T00:59:28;95928.66;;;10.39;64.75
38225;BME280;24025;48.138;11.428;2023-02-19T01:01:58;95923.63;;;10.34;64.77
38225;BME280;24025;48.138;11.428;2023-02-19T01:04:29;95936.09;;;10.30;65.20
38225;BME280;24025;48.138;11.428;2023-02-19T01:06:59;95935.06;;;10.34;64.69
38225;BME280;24025;48.138;11.428;2023-02-19T01:09:30;95923.94;;;10.32;65.39
38225;BME280;24025;48.138;11.428;2023-02-19T01:12:00;95921.28;;;10.32;65.08
38225;BME280;24025;48.138;11.428;2023-02-19T01:14:31;95907.53;;;10.30;65.21
38225;BME280;24025;48.138;11.428;2023-02-19T01:17:02;95912.16;;;10.33;64.81
38225;BME280;24025;48.138;11.428;2023-02-19T01:19:33;95910.97;;;10.31;65.14
38225;BME280;24025;48.138;11.428;2023-02-19T01:22:03;95908.66;;;10.29;65.12
38225;BME280;24025;48.138;11.428;2023-02-19T01:24:33;95912.88;;;10.30;65.12
38225;BME280;24025;48.138;11.428;2023-02-19T01:27:04;95909.44;;;10.30;65.33
38225;BME280;24025;48.138;11.428;2023-02-19T01:29:34;95923.47;;;10.27;65.21
38225;BME280;24025;48.138;11.428;2023-02-19T01:32:05;95921.16;;;10.25;65.15
38225;BME280;24025;48.138;11.428;2023-02-19T01:34:35;95906.28;;;10.24;65.22
38225;BME280;24025;48.138;11.428;2023-02-19T01:37:05;95912.22;;;10.17;65.49
38225;BME280;24025;48.138;11.428;2023-02-19T01:39:41;95910.75;;;10.20;65.99
38225;BME280;24025;48.138;11.428;2023-02-19T01:42:13;95911.44;;;10.17;65.92
38225;BME280;24025;48.138;11.428;2023-02-19T01:47:16;95902.13;;;10.07;66.12
38225;BME280;24025;48.138;11.428;2023-02-19T01:49:53;95899.00;;;10.05;66.61
38225;BME280;24025;48.138;11.428;2023-02-19T01:52:31;95900.63;;;10.10;66.16
38225;BME280;24025;48.138;11.428;2023-02-19T01:55:05;95884.66;;;10.10;65.96
38225;BME280;24025;48.138;11.428;2023-02-19T01:57:40;95894.13;;;10.07;66.35
38225;BME280;24025;48.138;11.428;2023-02-19T02:00:14;95886.91;;;10.08;66.37
38225;BME280;24025;48.138;11.428;2023-02-19T02:02:48;95885.69;;;10.05;67.12
38225;BME280;24025;48.138;11.428;2023-02-19T02:07:59;95894.44;;;10.06;69.16
38225;BME280;24025;48.138;11.428;2023-02-19T02:10:50;95891.66;;;9.99;69.85
38225;BME280;24025;48.138;11.428;2023-02-19T02:13:21;95889.66;;;9.96;70.16
38225;BME280;24025;48.138;11.428;2023-02-19T02:16:13;95897.59;;;9.92;71.45
38225;BME280;24025;48.138;11.428;2023-02-19T02:19:05;95889.56;;;9.73;72.92
38225;BME280;24025;48.138;11.428;2023-02-19T02:22:04;95884.88;;;9.66;73.73
38225;BME280;24025;48.138;11.428;2023-02-19T02:33:34;95876.06;;;9.30;78.10
38225;BME280;24025;48.138;11.428;2023-02-19T02:36:09;95866.88;;;9.28;78.96
38225;BME280;24025;48.138;11.428;2023-02-19T02:38:44;95865.66;;;9.25;79.08
38225;BME280;24025;48.138;11.428;2023-02-19T02:41:15;95870.81;;;9.18;80.31
38225;BME280;24025;48.138;11.428;2023-02-19T02:43:45;95865.44;;;9.15;81.15
38225;BME280;24025;48.138;11.428;2023-02-19T02:46:25;95863.97;;;9.01;82.50
38225;BME280;24025;48.138;11.428;2023-02-19T02:48:58;95855.41;;;8.92;83.65
38225;BME280;24025;48.138;11.428;2023-02-19T02:51:37;95856.84;;;8.90;83.67
38225;BME280;24025;48.138;11.428;2023-02-19T02:54:19;95860.53;;;8.85;83.77
38225;BME280;24025;48.138;11.428;2023-02-19T02:57:10;95856.00;;;8.86;84.42
38225;BME280;24025;48.138;11.428;2023-02-19T02:59:45;95849.72;;;8.78;84.23
38225;BME280;24025;48.138;11.428;2023-02-19T03:02:27;95845.75;;;8.72;85.76
38225;BME280;24025;48.138;11.428;2023-02-19T03:10:51;95845.75;;;8.56;86.33
38225;BME280;24025;48.138;11.428;2023-02-19T03:13:29;95838.44;;;8.53;87.70
38225;BME280;24025;48.138;11.428;2023-02-19T03:16:26;95833.72;;;8.46;88.84
38225;BME280;24025;48.138;11.428;2023-02-19T03:19:18;95837.50;;;8.45;88.66
38225;BME280;24025;48.138;11.428;2023-02-19T03:22:14;95832.44;;;8.40;87.75
38225;BME280;24025;48.138;11.428;2023-02-19T03:24:54;95835.88;;;8.41;89.32
38225;BME280;24025;48.138;11.428;2023-02-19T03:27:45;95842.19;;;8.36;88.33
38225;BME280;24025;48.138;11.428;2023-02-19T03:30:23;95838.41;;;8.37;88.28
38225;BME280;24025;48.138;11.428;2023-02-19T03:35:34;95825.03;;;8.34;89.37
38225;BME280;24025;48.138;11.428;2023-02-19T03:38:19;95820.41;;;8.31;90.86
38225;BME280;24025;48.138;11.428;2023-02-19T03:41:05;95832.25;;;8.21;92.68
38225;BME280;24025;48.138;11.428;2023-02-19T03:43:54;95830.22;;;8.14;91.76
38225;BME280;24025;48.138;11.428;2023-02-19T03:49:29;95821.84;;;8.00;93.54
38225;BME280;24025;48.138;11.428;2023-02-19T03:54:59;95827.53;;;7.86;93.12
38225;BME280;24025;48.138;11.428;2023-02-19T04:05:31;95815.34;;;7.85;93.64
38225;BME280;24025;48.138;11.428;2023-02-19T04:08:16;95810.94;;;7.77;94.23
38225;BME280;24025;48.138;11.428;2023-02-19T04:10:48;95812.19;;;7.80;93.89
38225;BME280;24025;48.138;11.428;2023-02-19T04:13:26;95808.41;;;7.81;94.09
38225;BME280;24025;48.138;11.428;2023-02-19T04:16:02;95804.22;;;7.80;93.10
38225;BME280;24025;48.138;11.428;2023-02-19T04:18:37;95799.47;;;7.73;94.13
38225;BME280;24025;48.138;11.428;2023-02-19T04:21:10;95787.75;;;7.74;93.51
38225;BME280;24025;48.138;11.428;2023-02-19T04:23:43;95797.25;;;7.75;93.97
38225;BME280;24025;48.138;11.428;2023-02-19T04:26:15;95798.38;;;7.74;93.56
38225;BME280;24025;48.138;11.428;2023-02-19T04:28:47;95806.66;;;7.73;93.19
38225;BME280;24025;48.138;11.428;2023-02-19T04:31:17;95802.47;;;7.72;93.54
38225;BME280;24025;48.138;11.428;2023-02-19T04:33:48;95797.84;;;7.69;93.45
38225;BME280;24025;48.138;11.428;2023-02-19T04:36:18;95815.41;;;7.73;92.81
38225;BME280;24025;48.138;11.428;2023-02-19T04:38:48;95817.38;;;7.76;93.34
38225;BME280;24025;48.138;11.428;2023-02-19T04:41:19;95818.81;;;7.74;92.55
38225;BME280;24025;48.138;11.428;2023-02-19T04:43:49;95821.47;;;7.74;93.00
38225;BME280;24025;48.138;11.428;2023-02-19T04:46:20;95830.91;;;7.71;92.63
38225;BME280;24025;48.138;11.428;2023-02-19T04:48:50;95823.91;;;7.79;91.98
38225;BME280;24025;48.138;11.428;2023-02-19T04:51:20;95823.22;;;7.82;91.15
38225;BME280;24025;48.138;11.428;2023-02-19T04:53:51;95826.66;;;7.82;91.00
38225;BME280;24025;48.138;11.428;2023-02-19T04:56:21;95830.84;;;7.83;90.07
38225;BME280;24025;48.138;11.428;2023-02-19T04:58:52;95839.59;;;7.84;90.55
38225;BME280;24025;48.138;11.428;2023-02-19T05:01:23;95841.25;;;7.88;90.61
38225;BME280;24025;48.138;11.428;2023-02-19T05:03:54;95833.63;;;7.87;90.70
38225;BME280;24025;48.138;11.428;2023-02-19T05:06:24;95849.34;;;7.80;91.07
38225;BME280;24025;48.138;11.428;2023-02-19T05:08:54;95835.06;;;7.84;90.83
38225;BME280;24025;48.138;11.428;2023-02-19T05:11:25;95844.38;;;7.78;90.52
38225;BME280;24025;48.138;11.428;2023-02-19T05:13:55;95832.41;;;7.84;90.16
38225;BME280;24025;48.138;11.428;2023-02-19T05:16:26;95838.16;;;7.86;89.66
38225;BME280;24025;48.138;11.428;2023-02-19T05:18:56;95823.00;;;7.87;89.85
38225;BME280;24025;48.138;11.428;2023-02-19T05:21:27;95829.19;;;7.91;88.89
38225;BME280;24025;48.138;11.428;2023-02-19T05:23:57;95837.81;;;7.88;89.07
38225;BME280;24025;48.138;11.428;2023-02-19T05:26:27;95834.16;;;7.92;88.64
38225;BME280;24025;48.138;11.428;2023-02-19T05:29:00;95842.09;;;7.92;88.90
38225;BME280;24025;48.138;11.428;2023-02-19T05:31:30;95850.19;;;7.96;88.03
38225;BME280;24025;48.138;11.428;2023-02-19T05:34:02;95841.44;;;7.95;87.89
38225;BME280;24025;48.138;11.428;2023-02-19T05:36:33;95851.81;;;8.01;87.67
38225;BME280;24025;48.138;11.428;2023-02-19T05:39:03;95847.63;;;8.00;86.94
38225;BME280;24025;48.138;11.428;2023-02-19T05:41:35;95854.47;;;8.01;86.34
38225;BME280;24025;48.138;11.428;2023-02-19T05:44:05;95858.69;;;8.02;86.95
38225;BME280;24025;48.138;11.428;2023-02-19T05:46:36;95863.66;;;8.03;87.42
38225;BME280;24025;48.138;11.428;2023-02-19T05:49:06;95863.34;;;8.05;86.09
38225;BME280;24025;48.138;11.428;2023-02-19T05:51:37;95864.31;;;8.00;86.31
38225;BME280;24025;48.138;11.428;2023-02-19T05:54:07;95870.53;;;8.04;86.64
38225;BME280;24025;48.138;11.428;2023-02-19T05:56:40;95876.50;;;8.01;86.57
38225;BME280;24025;48.138;11.428;2023-02-19T05:59:19;95876.59;;;8.05;86.62
38225;BME280;24025;48.138;11.428;2023-02-19T06:01:51;95876.69;;;8.08;86.50
38225;BME280;24025;48.138;11.428;2023-02-19T06:04:22;95875.94;;;8.08;85.96
38225;BME280;24025;48.138;11.428;2023-02-19T06:06:52;95869.94;;;8.11;85.81
38225;BME280;24025;48.138;11.428;2023-02-19T06:09:22;95878.78;;;8.15;85.37
38225;BME280;24025;48.138;11.428;2023-02-19T06:11:53;95879.56;;;8.03;86.45
38225;BME280;24025;48.138;11.428;2023-02-19T06:14:23;95873.28;;;8.08;85.80
38225;BME280;24025;48.138;11.428;2023-02-19T06:16:54;95877.91;;;8.11;85.67
38225;BME280;24025;48.138;11.428;2023-02-19T06:19:24;95879.00;;;8.10;85.11
38225;BME280;24025;48.138;11.428;2023-02-19T06:21:54;95877.81;;;8.07;85.65
38225;BME280;24025;48.138;11.428;2023-02-19T06:24:25;95893.94;;;8.14;84.97
38225;BME280;24025;48.138;11.428;2023-02-19T06:26:55;95891.38;;;8.18;84.76
38225;BME280;24025;48.138;11.428;2023-02-19T06:29:25;95889.16;;;8.20;84.75
38225;BME280;24025;48.138;11.428;2023-02-19T06:31:56;95905.44;;;8.18;84.67
38225;BME280;24025;48.138;11.428;2023-02-19T06:34:26;95903.66;;;8.22;84.23
38225;BME280;24025;48.138;11.428;2023-02-19T06:36:57;95912.41;;;8.23;84.53
38225;BME280;24025;48.138;11.428;2023-02-19T06:39:28;95903.41;;;8.28;83.71
38225;BME280;24025;48.138;11.428;2023-02-19T06:41:58;95918.16;;;8.25;83.93
38225;BME280;24025;48.138;11.428;2023-02-19T06:44:28;95923.47;;;8.25;84.19
38225;BME280;24025;48.138;11.428;2023-02-19T06:46:59;95929.88;;;8.24;84.06
38225;BME280;24025;48.138;11.428;2023-02-19T06:49:29;95928.22;;;8.32;83.65
38225;BME280;24025;48.138;11.428;2023-02-19T06:52:00;95925.97;;;8.34;83.44
38225;BME280;24025;48.138;11.428;2023-02-19T06:54:31;95932.19;;;8.38;83.59
38225;BME280;24025;48.138;11.428;2023-02-19T06:57:02;95932.41;;;8.33;83.99
38225;BME280;24025;48.138;11.428;2023-02-19T06:59:32;95932.31;;;8.41;83.27
38225;BME280;24025;48.138;11.428;2023-02-19T07:02:03;95941.13;;;8.45;83.39
38225;BME280;24025;48.138;11.428;2023-02-19T07:04:33;95942.03;;;8.49;82.83
38225;BME280;24025;48.138;11.428;2023-02-19T07:07:04;95945.09;;;8.51;82.62
38225;BME280;24025;48.138;11.428;2023-02-19T07:09:34;95957.19;;;8.49;82.51
38225;BME280;24025;48.138;11.428;2023-02-19T07:12:05;95958.81;;;8.54;83.38
38225;BME280;24025;48.138;11.428;2023-02-19T07:14:35;95954.84;;;8.47;83.33
38225;BME280;24025;48.138;11.428;2023-02-19T07:17:06;95958.06;;;8.53;83.06
38225;BME280;24025;48.138;11.428;2023-02-19T07:19:36;95962.59;;;8.52;83.35
38225;BME280;24025;48.138;11.428;2023-02-19T07:22:06;95967.47;;;8.50;84.10
38225;BME280;24025;48.138;11.428;2023-02-19T07:24:37;95981.88;;;8.49;84.34
38225;BME280;24025;48.138;11.428;2023-02-19T07:27:07;95973.13;;;8.49;84.46
38225;BME280;24025;48.138;11.428;2023-02-19T07:29:38;95972.88;;;8.54;84.35
38225;BME280;24025;48.138;11.428;2023-02-19T07:32:08;95982.59;;;8.62;84.03
38225;BME280;24025;48.138;11.428;2023-02-19T07:34:38;95989.59;;;8.67;84.46
38225;BME280;24025;48.138;11.428;2023-02-19T07:37:09;95991.78;;;8.65;84.51
38225;BME280;24025;48.138;11.428;2023-02-19T07:39:39;95997.00;;;8.61;83.70
38225;BME280;24025;48.138;11.428;2023-02-19T07:42:10;95995.47;;;8.60;84.70
38225;BME280;24025;48.138;11.428;2023-02-19T07:44:40;95991.47;;;8.66;84.47
38225;BME280;24025;48.138;11.428;2023-02-19T07:47:10;96002.09;;;8.66;84.48
38225;BME280;24025;48.138;11.428;2023-02-19T07:49:41;95998.66;;;8.66;83.97
38225;BME280;24025;48.138;11.428;2023-02-19T07:52:11;96010.38;;;8.65;84.58
38225;BME280;24025;48.138;11.428;2023-02-19T07:54:41;96012.75;;;8.66;85.32
38225;BME280;24025;48.138;11.428;2023-02-19T07:57:12;96007.84;;;8.68;84.92
38225;BME280;24025;48.138;11.428;2023-02-19T07:59:43;96017.94;;;8.63;84.04
38225;BME280;24025;48.138;11.428;2023-02-19T08:02:18;96024.44;;;8.65;84.60
38225;BME280;24025;48.138;11.428;2023-02-19T08:05:07;96028.56;;;8.63;85.20
38225;BME280;24025;48.138;11.428;2023-02-19T08:07:37;96038.44;;;8.62;85.65
38225;BME280;24025;48.138;11.428;2023-02-19T08:10:08;96034.66;;;8.63;85.62
38225;BME280;24025;48.138;11.428;2023-02-19T08:13:13;96037.34;;;8.51;85.18
38225;BME280;24025;48.138;11.428;2023-02-19T08:18:31;96035.44;;;8.64;85.24
38225;BME280;24025;48.138;11.428;2023-02-19T08:21:02;96037.09;;;8.68;84.90
38225;BME280;24025;48.138;11.428;2023-02-19T08:23:32;96047.19;;;8.63;84.25
38225;BME280;24025;48.138;11.428;2023-02-19T08:26:03;96054.03;;;8.64;84.07
38225;BME280;24025;48.138;11.428;2023-02-19T08:28:34;96049.84;;;8.63;83.72
38225;BME280;24025;48.138;11.428;2023-02-19T08:31:06;96051.97;;;8.57;85.06
38225;BME280;24025;48.138;11.428;2023-02-19T08:33:37;96057.38;;;8.61;84.62
38225;BME280;24025;48.138;11.428;2023-02-19T08:36:08;96062.13;;;8.67;84.17
38225;BME280;24025;48.138;11.428;2023-02-19T08:38:39;96054.72;;;8.61;84.18
38225;BME280;24025;48.138;11.428;2023-02-19T08:41:12;96068.31;;;8.71;84.03
38225;BME280;24025;48.138;11.428;2023-02-19T08:43:42;96070.53;;;8.69;84.36
38225;BME280;24025;48.138;11.428;2023-02-19T08:46:13;96064.78;;;8.67;84.79
38225;BME280;24025;48.138;11.428;2023-02-19T08:48:43;96065.66;;;8.71;84.63
38225;BME280;24025;48.138;11.428;2023-02-19T08:51:14;96080.94;;;8.74;84.34
38225;BME280;24025;48.138;11.428;2023-02-19T08:53:44;96067.19;;;8.72;84.82
38225;BME280;24025;48.138;11.428;2023-02-19T08:56:15;96076.41;;;8.63;84.95
38225;BME280;24025;48.138;11.428;2023-02-19T08:58:46;96084.41;;;8.63;84.99
38225;BME280;24025;48.138;11.428;2023-02-19T09:01:17;96082.38;;;8.72;84.90
38225;BME280;24025;48.138;11.428;2023-02-19T09:03:47;96077.84;;;8.72;85.15
38225;BME280;24025;48.138;11.428;2023-02-19T09:06:19;96080.41;;;8.69;85.58
38225;BME280;24025;48.138;11.428;2023-02-19T09:08:49;96087.19;;;8.66;84.43
38225;BME280;24025;48.138;11.428;2023-02-19T09:11:20;96088.13;;;8.74;84.50
38225;BME280;24025;48.138;11.428;2023-02-19T09:13:50;96090.47;;;8.75;84.52
38225;BME280;24025;48.138;11.428;2023-02-19T09:16:20;96096.78;;;8.71;85.11
38225;BME280;24025;48.138;11.428;2023-02-19T09:18:51;96095.78;;;8.75;82.19
38225;BME280;24025;48.138;11.428;2023-02-19T09:21:21;96105.97;;;8.73;82.96
38225;BME280;24025;48.138;11.428;2023-02-19T09:23:51;96104.53;;;8.76;82.44
38225;BME280;24025;48.138;11.428;2023-02-19T09:26:22;96112.47;;;8.88;81.36
38225;BME280;24025;48.138;11.428;2023-02-19T09:28:54;96102.78;;;9.08;79.92
38225;BME280;24025;48.138;11.428;2023-02-19T09:31:24;96113.75;;;9.06;78.79
38225;BME280;24025;48.138;11.428;2023-02-19T09:33:54;96097.66;;;9.15;78.48
38225;BME280;24025;48.138;11.428;2023-02-19T09:36:25;96120.16;;;9.18;78.08
38225;BME280;24025;48.138;11.428;2023-02-19T09:38:55;96115.66;;;9.06;77.35
38225;BME280;24025;48.138;11.428;2023-02-19T09:41:34;96124.00;;;8.92;77.94
38225;BME280;24025;48.138;11.428;2023-02-19T09:44:08;96121.78;;;8.94;75.77
38225;BME280;24025;48.138;11.428;2023-02-19T09:46:48;96135.00;;;8.78;74.63
38225;BME280;24025;48.138;11.428;2023-02-19T09:49:23;96133.25;;;8.58;73.73
38225;BME280;24025;48.138;11.428;2023-02-19T09:52:06;96132.34;;;8.54;74.70
38225;BME280;24025;48.138;11.428;2023-02-19T09:54:39;96132.38;;;8.42;73.86
38225;BME280;24025;48.138;11.428;2023-02-19T09:57:16;96144.53;;;8.55;74.67
38225;BME280;24025;48.138;11.428;2023-02-19T09:59:51;96130.91;;;8.57;74.70
38225;BME280;24025;48.138;11.428;2023-02-19T10:02:24;96133.81;;;8.51;72.64
38225;BME280;24025;48.138;11.428;2023-02-19T10:04:55;96133.25;;;8.46;72.64
38225;BME280;24025;48.138;11.428;2023-02-19T10:07:36;96128.94;;;8.54;72.07
38225;BME280;24025;48.138;11.428;2023-02-19T10:12:50;96127.53;;;8.96;66.21
38225;BME280;24025;48.138;11.428;2023-02-19T10:15:30;96130.06;;;9.05;65.34
38225;BME280;24025;48.138;11.428;2023-02-19T10:18:03;96130.16;;;9.08;64.99
38225;BME280;24025;48.138;11.428;2023-02-19T10:20:34;96131.13;;;9.16;65.27
38225;BME280;24025;48.138;11.428;2023-02-19T10:23:06;96156.69;;;9.33;63.98
38225;BME280;24025;48.138;11.428;2023-02-19T10:25:44;96138.50;;;9.63;64.01
38225;BME280;24025;48.138;11.428;2023-02-19T10:28:17;96138.28;;;9.84;64.20
38225;BME280;24025;48.138;11.428;2023-02-19T10:30:54;96141.78;;;9.88;63.83
38225;BME280;24025;48.138;11.428;2023-02-19T10:33:25;96129.34;;;9.92;63.10
38225;BME280;24025;48.138;11.428;2023-02-19T10:35:57;96141.13;;;10.07;62.48
38225;BME280;24025;48.138;11.428;2023-02-19T10:38:31;96127.84;;;10.23;61.43
38225;BME280;24025;48.138;11.428;2023-02-19T10:41:13;96148.47;;;10.26;59.49
38225;BME280;24025;48.138;11.428;2023-02-19T10:43:51;96136.78;;;10.30;60.46
38225;BME280;24025;48.138;11.428;2023-02-19T10:46:26;96133.69;;;10.28;60.46
38225;BME280;24025;48.138;11.428;2023-02-19T10:49:05;96140.31;;;10.34;58.79
38225;BME280;24025;48.138;11.428;2023-02-19T10:51:38;96122.16;;;10.40;56.65
38225;BME280;24025;48.138;11.428;2023-02-19T10:54:16;96120.69;;;10.42;56.66
38225;BME280;24025;48.138;11.428;2023-02-19T10:56:48;96133.59;;;10.40;57.61
38225;BME280;24025;48.138;11.428;2023-02-19T10:59:28;96115.50;;;10.49;57.41
38225;BME280;24025;48.138;11.428;2023-02-19T11:01:59;96117.03;;;10.66;57.23
38225;BME280;24025;48.138;11.428;2023-02-19T11:04:32;96120.66;;;10.58;56.54
38225;BME280;24025;48.138;11.428;2023-02-19T11:07:16;96119.66;;;10.47;57.18
38225;BME280;24025;48.138;11.428;2023-02-19T11:09:49;96110.53;;;10.48;56.87
38225;BME280;24025;48.138;11.428;2023-02-19T11:12:31;96106.00;;;10.17;56.86
38225;BME280;24025;48.138;11.428;2023-02-19T11:15:31;96118.03;;;10.27;56.64
38225;BME280;24025;48.138;11.428;2023-02-19T11:20:53;96108.03;;;10.39;57.03
38225;BME280;24025;48.138;11.428;2023-02-19T11:26:00;96106.94;;;10.75;57.44
38225;BME280;24025;48.138;11.428;2023-02-19T11:28:32;96107.97;;;11.06;56.64
38225;BME280;24025;48.138;11.428;2023-02-19T11:36:35;96103.81;;;11.67;55.74
38225;BME280;24025;48.138;11.428;2023-02-19T11:49:44;96115.59;;;10.53;59.51
38225;BME280;24025;48.138;11.428;2023-02-19T11:52:34;96134.03;;;10.42;59.32
38225;BME280;24025;48.138;11.428;2023-02-19T11:58:35;96146.28;;;10.00;56.87
38225;BME280;24025;48.138;11.428;2023-02-19T12:07:07;96121.78;;;9.94;56.55
38225;BME280;24025;48.138;11.428;2023-02-19T12:10:02;96112.94;;;10.06;56.41
38225;BME280;24025;48.138;11.428;2023-02-19T12:15:31;96120.84;;;10.02;56.66
38225;BME280;24025;48.138;11.428;2023-02-19T12:21:27;96116.28;;;10.18;56.66
38225;BME280;24025;48.138;11.428;2023-02-19T12:27:48;96125.00;;;10.31;56.98
38225;BME280;24025;48.138;11.428;2023-02-19T12:38:58;96149.06;;;10.19;58.46
38225;BME280;24025;48.138;11.428;2023-02-19T12:44:39;96170.75;;;9.05;63.60
38225;BME280;24025;48.138;11.428;2023-02-19T12:47:28;96165.31;;;9.02;64.08
38225;BME280;24025;48.138;11.428;2023-02-19T12:50:12;96170.09;;;8.96;64.44
38225;BME280;24025;48.138;11.428;2023-02-19T12:52:50;96173.53;;;8.97;64.02
38225;BME280;24025;48.138;11.428;2023-02-19T12:55:42;96187.00;;;9.16;63.37
38225;BME280;24025;48.138;11.428;2023-02-19T12:58:44;96184.66;;;9.27;62.00
38225;BME280;24025;48.138;11.428;2023-02-19T13:01:22;96174.47;;;9.29;60.79
38225;BME280;24025;48.138;11.428;2023-02-19T13:07:01;96170.44;;;9.35;59.71
38225;BME280;24025;48.138;11.428;2023-02-19T13:09:42;96162.28;;;9.56;58.36
38225;BME280;24025;48.138;11.428;2023-02-19T13:12:25;96186.09;;;9.64;57.72
38225;BME280;24025;48.138;11.428;2023-02-19T13:15:16;96190.94;;;9.75;58.10
38225;BME280;24025;48.138;11.428;2023-02-19T13:17:50;96175.91;;;9.82;58.05
38225;BME280;24025;48.138;11.428;2023-02-19T13:20:35;96182.06;;;9.71;57.99
38225;BME280;24025;48.138;11.428;2023-02-19T13:34:50;96181.00;;;9.31;58.89
38225;BME280;24025;48.138;11.428;2023-02-19T13:37:24;96164.53;;;9.70;59.04
38225;BME280;24025;48.138;11.428;2023-02-19T13:39:56;96171.13;;;9.60;59.42
38225;BME280;24025;48.138;11.428;2023-02-19T13:42:35;96158.00;;;9.67;59.68
38225;BME280;24025;48.138;11.428;2023-02-19T13:45:06;96167.50;;;9.52;60.61
38225;BME280;24025;48.138;11.428;2023-02-19T13:50:31;96183.88;;;9.26;61.38
38225;BME280;24025;48.138;11.428;2023-02-19T13:56:35;96186.50;;;8.86;62.89
38225;BME280;24025;48.138;11.428;2023-02-19T13:59:37;96188.63;;;8.80;62.42
38225;BME280;24025;48.138;11.428;2023-02-19T14:02:31;96190.81;;;8.91;61.79
38225;BME280;24025;48.138;11.428;2023-02-19T14:05:05;96164.47;;;8.86;61.99
38225;BME280;24025;48.138;11.428;2023-02-19T14:07:50;96163.91;;;8.92;61.86
38225;BME280;24025;48.138;11.428;2023-02-19T14:19:13;96186.50;;;8.98;62.71
38225;BME280;24025;48.138;11.428;2023-02-19T14:21:44;96182.63;;;8.96;62.89
38225;BME280;24025;48.138;11.428;2023-02-19T14:24:15;96169.41;;;8.99;63.03
38225;BME280;24025;48.138;11.428;2023-02-19T14:26:46;96180.19;;;8.91;62.67
38225;BME280;24025;48.138;11.428;2023-02-19T14:29:16;96160.56;;;8.95;62.82
38225;BME280;24025;48.138;11.428;2023-02-19T14:31:47;96177.50;;;8.91;63.11
38225;BME280;24025;48.138;11.428;2023-02-19T14:34:22;96193.72;;;8.86;63.01
38225;BME280;24025;48.138;11.428;2023-02-19T14:36:57;96195.47;;;8.82;63.35
38225;BME280;24025;48.138;11.428;2023-02-19T14:39:30;96179.66;;;8.85;62.79
38225;BME280;24025;48.138;11.428;2023-02-19T14:42:16;96172.53;;;8.89;62.52
38225;BME280;24025;48.138;11.428;2023-02-19T14:44:59;96167.66;;;8.91;62.76
38225;BME280;24025;48.138;11.428;2023-02-19T14:47:31;96164.59;;;8.77;61.91
38225;BME280;24025;48.138;11.428;2023-02-19T14:50:12;96159.59;;;8.88;61.88
38225;BME280;24025;48.138;11.428;2023-02-19T14:52:49;96157.25;;;8.86;61.72
38225;BME280;24025;48.138;11.428;2023-02-19T14:55:29;96170.69;;;8.77;61.84
38225;BME280;24025;48.138;11.428;2023-02-19T14:58:06;96183.53;;;8.75;61.95
38225;BME280;24025;48.138;11.428;2023-02-19T15:00:41;96189.94;;;8.74;61.82
38225;BME280;24025;48.138;11.428;2023-02-19T15:03:41;96181.09;;;8.70;61.94
38225;BME280;24025;48.138;11.428;2023-02-19T15:06:13;96193.94;;;8.68;62.29
38225;BME280;24025;48.138;11.428;2023-02-19T15:08:55;96181.09;;;8.70;62.22
38225;BME280;24025;48.138;11.428;2023-02-19T15:11:28;96179.88;;;8.68;62.25
38225;BME280;24025;48.138;11.428;2023-02-19T15:14:04;96189.84;;;8.71;61.70
38225;BME280;24025;48.138;11.428;2023-02-19T15:16:35;96203.22;;;8.74;61.61
38225;BME280;24025;48.138;11.428;2023-02-19T15:19:08;96208.44;;;8.71;61.67
38225;BME280;24025;48.138;11.428;2023-02-19T15:21:44;96215.53;;;8.79;61.29
38225;BME280;24025;48.138;11.428;2023-02-19T15:24:16;96216.88;;;8.85;61.51
38225;BME280;24025;48.138;11.428;2023-02-19T15:26:49;96222.53;;;8.84;61.23
38225;BME280;24025;48.138;11.428;2023-02-19T15:29:22;96220.75;;;8.75;61.20
38225;BME280;24025;48.138;11.428;2023-02-19T15:31:56;96234.94;;;8.79;60.90
38225;BME280;24025;48.138;11.428;2023-02-19T15:34:29;96231.94;;;8.93;60.22
38225;BME280;24025;48.138;11.428;2023-02-19T15:37:05;96229.72;;;8.95;60.24
38225;BME280;24025;48.138;11.428;2023-02-19T15:39:39;96222.19;;;8.97;59.80